< < Back
Terminal Aerodrome Forecast


Current Version              Previous Versions:   1  2  3  4  5  6  7  8  9  

Terminal Aerodrome Forecast

238
FTUS42 KTAE 251120
TAFABY
TAF
KABY 251120Z 2512/2612 00000KT P6SM SKC
     FM251500 17006KT P6SM SCT060
     FM260100 VRB03KT P6SM SKC=

Latest METAR

994
SAUS70 KWBC 260000 RRI
MTRABY
METAR KABY 252353Z 14005KT 10SM CLR 30/14 A3015 RMK AO2 SLP207 T03000139
10328 20300 55010


USA.gov is the U.S. government's official web portal to all federal, state and local government web resources and services.